Boyd, Minnesota
Current Conditions -  °F | °C
As of 10:33 PM on Saturday 22 Nov 2014 (Local Time) from KMVE Reporting Station
Haze Haze  
Wind Chill: 31°   Ceiling: Unl
Heat Index: 36°   Visibility: 5mi
Dew Point: 36°   Wind: 6mph
Humidity: 100%   Direction: 200°SSW
Pressure: 29.42"   Gusts: NA
Location:  44.85°N, 95.9°W
Report Text: KMVE 230433Z AUTO 20005KT 5SM BR CLR 02/02 A2942 RMK AO2
Loading
Personal Weather Stations






























Interactive Weather Map New forecast layout! Learn more

10-Day Weather Forecast

Advertisements
Track Severe Weather on mobile